CW4635 Victoria BC CA current weather conditions

sailwx.info

Wind from 341

Air temperature 8.3° C
Dewpoint 7.6° C

Last reported at 2019-Dec-07 12:00 UTC.
Time now 2019-Dec-07 12:37 UTC

Location: N 48°25' W 123°29'.
View on Google Maps.

See reports from other nearby stations

  
Tides and Currents Weather Stations Pressure Air Temp Water Temp Dewpoint Dewpoint Depression Visibility Wind Speed Wind Dir Waves Ship Positions
date/time (UTC)wind fromknots sea level pressurealtimeterstation pressurevisibilityair tempwater tempwave heightnotes
2019-Dec-07 12:00 341 8.3
2019-Dec-07 11:45 313 0 gusting 2 8.3
2019-Dec-07 11:30 342 0 gusting 2 8.3
2019-Dec-07 11:16 009 8.3
2019-Dec-07 11:01 336 0 gusting 2 8.3
2019-Dec-07 10:47 306 8.3
2019-Dec-07 10:32 306 8.3
2019-Dec-07 10:17 292 1 gusting 3 8.3
2019-Dec-07 10:02 279 8.3
2019-Dec-07 09:47 279 0 gusting 3 8.3
2019-Dec-07 09:32 249 0 gusting 2 8.3
2019-Dec-07 09:16 236 0 gusting 3 8.3
2019-Dec-07 09:02 238 2 gusting 4 8.3
2019-Dec-07 08:46 251 1 gusting 3 7.8
2019-Dec-07 08:31 272 1 gusting 3 8.3
2019-Dec-07 08:16 276 0 gusting 3 8.3
2019-Dec-07 08:01 268 8.3
2019-Dec-07 07:46 234 7.8
2019-Dec-07 07:31 235 0 gusting 3 8.3
2019-Dec-07 07:17 292 0 gusting 3 8.3
2019-Dec-07 07:01 277 0 gusting 4 8.3
2019-Dec-07 06:46 295 0 gusting 3 8.3
2019-Dec-07 06:31 271 0 gusting 3 8.3
2019-Dec-07 06:16 261 0 gusting 4 7.8
2019-Dec-07 06:01 244 2 gusting 5 7.8
2019-Dec-07 05:46 255 1 gusting 5 8.3
2019-Dec-07 05:31 266 2 gusting 5 7.8
2019-Dec-07 05:16 233 1 gusting 5 8.3
2019-Dec-07 05:00 319 8.3
2019-Dec-07 04:46 324 0 gusting 1 8.3
2019-Dec-07 04:31 214 0 gusting 4 8.3
2019-Dec-07 04:16 267 2 gusting 6 8.3
2019-Dec-07 04:00 290 1 gusting 3 8.3
2019-Dec-07 03:46 293 8.3
2019-Dec-07 03:31 271 0 gusting 2 8.3
2019-Dec-07 03:15 291 8.3
2019-Dec-07 03:01 306 8.3
2019-Dec-07 02:46 241 0 gusting 4 8.3
2019-Dec-07 02:31 317 8.3
2019-Dec-07 02:16 246 2 gusting 5 7.8
2019-Dec-07 02:00 325 7.8
2019-Dec-07 01:46 248 8.3
2019-Dec-07 01:30 321 8.3
2019-Dec-07 01:15 252 1 gusting 3 8.3
2019-Dec-07 01:01 265 1 gusting 4 8.3
2019-Dec-07 00:45 292 8.3
2019-Dec-07 00:30 269 0 gusting 3 8.3
2019-Dec-07 00:15 271 1 gusting 2 8.3
2019-Dec-07 00:00 293 8.9
2019-Dec-06 23:46 293 8.9
2019-Dec-06 23:30 313 8.9
2019-Dec-06 23:15 019 8.9
2019-Dec-06 23:00 026 8.9
2019-Dec-06 22:46 026 8.9
2019-Dec-06 22:30 026 8.9
2019-Dec-06 22:15 026 8.9
2019-Dec-06 22:00 350 8.9
2019-Dec-06 21:45 355 0 gusting 6 8.9
2019-Dec-06 21:30 005 2 gusting 5 8.9
2019-Dec-06 21:16 005 0 gusting 4 8.9
2019-Dec-06 21:00 355 1 gusting 6 8.9
2019-Dec-06 20:45 005 2 gusting 6 8.9
2019-Dec-06 20:30 022 2 gusting 5 8.9
2019-Dec-06 20:15 063 3 gusting 6 9.4
2019-Dec-06 20:00 360 2 gusting 5 9.4
2019-Dec-06 19:45 350 2 gusting 7 8.9
2019-Dec-06 19:30 329 1 gusting 4 8.9
2019-Dec-06 19:15 355 1 gusting 3 8.3
2019-Dec-06 19:00 309 0 gusting 3 8.3
2019-Dec-06 18:45 346 1 gusting 5 8.3
2019-Dec-06 18:30 341 3 gusting 6 8.3
2019-Dec-06 18:15 349 7.8
2019-Dec-06 18:00 360 0 gusting 2 7.8
2019-Dec-06 17:46 339 7.8
2019-Dec-06 17:32 339 7.8
2019-Dec-06 17:16 319 7.8
2019-Dec-06 17:02 360 1 gusting 5 7.8
2019-Dec-06 16:47 325 7.8
2019-Dec-06 16:31 314 0 gusting 5 7.8
2019-Dec-06 16:16 254 2 gusting 6 7.8
2019-Dec-06 16:02 271 0 gusting 4 7.2
2019-Dec-06 15:46 297 1 gusting 4 7.2
2019-Dec-06 15:32 019 7.2
2019-Dec-06 15:16 017 2 gusting 6 7.2
2019-Dec-06 15:01 321 7.2
2019-Dec-06 14:46 331 0 gusting 5 7.2
2019-Dec-06 14:31 348 1 gusting 5 7.2
2019-Dec-06 14:16 178 1 gusting 4 7.2
2019-Dec-06 14:01 257 1 gusting 5 7.2
2019-Dec-06 13:46 278 1 gusting 6 7.2
2019-Dec-06 13:32 355 1 gusting 5 7.2
2019-Dec-06 13:16 290 2 gusting 5 7.2
2019-Dec-06 13:01 284 2 gusting 5 7.2
2019-Dec-06 12:46 338 2 gusting 6 7.2
2019-Dec-06 12:31 336 1 gusting 3 7.2
2019-Dec-06 12:16 265 1 gusting 6 7.2
2019-Dec-06 12:01 284 1 gusting 5 7.2
2019-Dec-06 11:46 309 7.2
2019-Dec-06 11:30 332 7.2
2019-Dec-06 11:16 289 0 gusting 4 7.2
2019-Dec-06 11:01 334 0 gusting 5 7.2
2019-Dec-06 10:46 306 2 gusting 6 7.2
2019-Dec-06 10:31 296 0 gusting 4 7.2
2019-Dec-06 10:16 323 1 gusting 4 7.2
2019-Dec-06 10:01 235 1 gusting 6 7.2
2019-Dec-06 09:45 300 2 gusting 6 6.7
2019-Dec-06 09:30 273 0 gusting 3 6.7
2019-Dec-06 09:16 314 6.7
2019-Dec-06 09:00 246 2 gusting 5 6.7
2019-Dec-06 08:45 307 0 gusting 3 6.7
2019-Dec-06 08:31 340 6.7
2019-Dec-06 08:15 302 0 gusting 4 6.7
2019-Dec-06 08:00 286 1 gusting 4 6.7
2019-Dec-06 07:45 347 0 gusting 4 6.7
2019-Dec-06 07:30 244 6.7
2019-Dec-06 07:15 265 1 gusting 4 7.2
2019-Dec-06 07:00 271 7.2
2019-Dec-06 06:45 290 0 gusting 3 7.2
2019-Dec-06 06:30 339 2 gusting 4 7.2
2019-Dec-06 06:15 293 0 gusting 4 7.2
2019-Dec-06 06:00 343 1 gusting 4 7.2
2019-Dec-06 05:45 229 7.2
2019-Dec-06 05:30 355 1 gusting 6 7.2
2019-Dec-06 05:15 348 1 gusting 4 7.2
2019-Dec-06 05:00 319 0 gusting 3 7.2
2019-Dec-06 04:45 284 7.2
2019-Dec-06 04:30 343 0 gusting 3 7.2
2019-Dec-06 04:15 355 7.2
2019-Dec-06 04:00 355 0 gusting 2 7.2
2019-Dec-06 03:45 329 7.2
2019-Dec-06 03:30 313 7.2
2019-Dec-06 03:15 349 7.8
2019-Dec-06 03:00 355 7.8
2019-Dec-06 02:45 005 2 gusting 4 7.8
2019-Dec-06 02:30 340 0 gusting 5 7.8
2019-Dec-06 02:15 325 1 gusting 6 7.8
2019-Dec-06 02:00 335 1 gusting 6 7.8
2019-Dec-06 01:45 355 3 gusting 6 7.8
2019-Dec-06 01:30 287 7.8
2019-Dec-06 01:15 322 1 gusting 4 7.8
2019-Dec-06 01:00 350 7.8
2019-Dec-06 00:45 341 2 gusting 6 7.8
2019-Dec-06 00:30 355 1 gusting 5 7.8
2019-Dec-06 00:15 344 1 gusting 6 7.8
2019-Dec-05 23:48 027 2 gusting 6 8.3
2019-Dec-05 23:31 340 3 gusting 6 8.3
2019-Dec-05 23:17 342 0 gusting 4 8.3
2019-Dec-05 23:01 340 2 gusting 6 8.3
2019-Dec-05 22:46 342 3 gusting 7 8.3
2019-Dec-05 22:32 329 2 gusting 5 8.3
2019-Dec-05 22:17 341 1 gusting 5 8.3
2019-Dec-05 22:02 026 4 gusting 8 8.3
2019-Dec-05 21:48 333 1 gusting 4 8.3
2019-Dec-05 21:31 349 1 gusting 6 8.3
2019-Dec-05 21:16 338 3 gusting 10 8.3
2019-Dec-05 21:02 283 1 gusting 8 7.8
2019-Dec-05 20:46 298 3 gusting 8 7.8
2019-Dec-05 20:32 346 2 gusting 10 7.8
2019-Dec-05 20:16 005 1 gusting 7 7.8
2019-Dec-05 20:01 341 2 gusting 7 7.8
2019-Dec-05 19:46 346 3 gusting 9 7.8
2019-Dec-05 19:31 005 1 gusting 4 7.8
2019-Dec-05 19:16 355 2 gusting 6 7.8
2019-Dec-05 19:01 309 1 gusting 4 7.8
2019-Dec-05 18:46 342 2 gusting 9 7.8
2019-Dec-05 18:31 323 4 gusting 8 7.8
2019-Dec-05 18:16 287 2 gusting 8 7.8
2019-Dec-05 18:01 317 2 gusting 6 7.8
2019-Dec-05 17:46 360 3 gusting 8 7.2
2019-Dec-05 17:31 340 2 gusting 8 7.2
2019-Dec-05 17:15 303 3 gusting 8 7.2
2019-Dec-05 17:00 329 2 gusting 6 6.7
2019-Dec-05 16:45 290 0 gusting 4 6.7
2019-Dec-05 16:31 355 0 gusting 3 6.7
2019-Dec-05 16:15 295 1 gusting 6 6.7
2019-Dec-05 16:01 005 1 gusting 6 6.1
2019-Dec-05 15:45 310 6.1
2019-Dec-05 15:31 355 6.1
2019-Dec-05 15:15 305 6.1
2019-Dec-05 15:01 338 0 gusting 3 6.1
2019-Dec-05 14:45 348 1 gusting 4 5.6
2019-Dec-05 14:31 355 6.1
2019-Dec-05 14:15 312 6.1
2019-Dec-05 14:00 344 6.1
2019-Dec-05 13:45 344 6.1
2019-Dec-05 13:30 344 0 gusting 1 6.7
2019-Dec-05 13:15 344 0 gusting 2 6.7
2019-Dec-05 13:01 355 1 gusting 4 6.7
2019-Dec-05 12:45 348 0 gusting 4 6.7
2019-Dec-05 12:30 344 6.7
2019-Dec-05 12:15 323 0 gusting 1 6.7
2019-Dec-05 12:00 355 0 gusting 4 6.7